Time;durP1;ratioP1;P1;durP2;ratioP2;P2;SDS_P1;SDS_P2;PMS_P1;PMS_P2;Temp;Humidity;BMP_temperature;BMP_pressure;BME280_temperature;BME280_humidity;BME280_pressure;Samples;Min_cycle;Max_cycle;Signal;HPM_P1;HPM_P2
2022/06/29 00:02:05;;;;;;;8.60;7.80;;;;;;;19.16;71.52;99824.59;429549;1270;151742;-59
2022/06/29 00:12:11;;;;;;;9.20;8.40;;;;;;;19.06;71.80;99817.61;431491;1270;142537;-59
2022/06/29 01:07:47;;;;;;;11.30;10.30;;;;;;;18.48;74.79;99761.92;432230;1270;148040;-59
2022/06/29 01:17:54;;;;;;;10.30;9.20;;;;;;;18.55;75.05;99763.91;431565;1270;142688;-59
2022/06/29 01:28:00;;;;;;;14.20;11.80;;;;;;;18.74;74.96;99770.11;431062;1270;142288;-58
2022/06/29 01:38:06;;;;;;;12.40;11.20;;;;;;;18.57;75.17;99771.44;429998;1270;143725;-59
2022/06/29 01:48:12;;;;;;;12.30;11.20;;;;;;;18.36;75.60;99774.87;431500;1270;142048;-58
2022/06/29 01:58:18;;;;;;;12.30;11.10;;;;;;;18.30;75.95;99775.28;430715;1270;142709;-59
2022/06/29 02:08:23;;;;;;;14.30;12.00;;;;;;;18.26;76.20;99775.06;430694;1269;143184;-58
2022/06/29 02:18:29;;;;;;;13.80;12.60;;;;;;;18.27;76.46;99766.20;431187;1270;197749;-59
2022/06/29 02:28:35;;;;;;;15.80;14.20;;;;;;;18.23;76.61;99753.77;430701;1270;147193;-59
2022/06/29 02:38:41;;;;;;;21.50;18.00;;;;;;;18.15;76.81;99738.00;440371;1269;141764;-59
2022/06/29 02:48:47;;;;;;;22.30;19.70;;;;;;;18.08;77.23;99716.57;430733;1270;142322;-60
2022/06/29 02:58:52;;;;;;;29.20;21.10;;;;;;;18.04;77.61;99695.66;430331;1270;146321;-58
2022/06/29 03:08:58;;;;;;;25.70;20.60;;;;;;;18.03;77.98;99702.06;442084;1269;142289;-59
2022/06/29 03:19:04;;;;;;;21.90;19.50;;;;;;;18.06;78.20;99691.04;440304;1270;142401;-58
2022/06/29 03:29:10;;;;;;;26.20;20.00;;;;;;;18.23;78.17;99693.71;430750;1270;142633;-62
2022/06/29 03:39:16;;;;;;;24.40;21.20;;;;;;;18.30;78.08;99673.39;432111;1270;144335;-60
2022/06/29 03:49:21;;;;;;;26.90;22.70;;;;;;;18.35;78.19;99654.44;433105;1270;143007;-58
2022/06/29 03:59:27;;;;;;;23.50;20.50;;;;;;;18.52;77.99;99672.19;430367;1270;142596;-59
2022/06/29 04:09:33;;;;;;;23.40;19.00;;;;;;;18.62;77.62;99678.88;431439;1270;142513;-59
2022/06/29 04:19:39;;;;;;;23.50;20.70;;;;;;;18.57;77.62;99689.20;430515;1270;142447;-58
2022/06/29 04:29:45;;;;;;;23.40;20.30;;;;;;;18.51;77.68;99697.27;429732;1270;142089;-59
2022/06/29 04:39:50;;;;;;;21.90;19.60;;;;;;;18.69;77.78;99696.05;431458;1271;142494;-61
2022/06/29 04:49:56;;;;;;;25.60;19.60;;;;;;;18.80;77.32;99717.55;430899;1270;143759;-59
2022/06/29 05:00:02;;;;;;;20.20;16.40;;;;;;;18.89;77.06;99713.86;430481;1270;142999;-60
2022/06/29 05:10:10;;;;;;;19.80;17.50;;;;;;;19.01;76.98;99705.23;431204;1270;147692;-59
2022/06/29 05:20:17;;;;;;;23.00;18.90;;;;;;;19.07;76.67;99699.41;430175;1270;144039;-59
2022/06/29 05:30:22;;;;;;;23.60;18.80;;;;;;;19.20;76.62;99688.41;438035;1270;143244;-60
2022/06/29 05:40:28;;;;;;;23.00;18.60;;;;;;;19.38;76.05;99680.36;430148;1270;142893;-59
2022/06/29 05:50:34;;;;;;;24.20;21.10;;;;;;;19.58;75.69;99686.04;439278;1270;142315;-59
2022/06/29 06:00:40;;;;;;;21.90;17.80;;;;;;;19.84;75.08;99693.52;431066;1270;143131;-58
2022/06/29 06:10:46;;;;;;;24.80;19.60;;;;;;;19.97;74.52;99699.35;430971;1270;141586;-60
2022/06/29 06:20:52;;;;;;;18.70;16.80;;;;;;;20.38;73.97;99699.81;430147;1271;143309;-58
2022/06/29 06:30:57;;;;;;;24.40;21.80;;;;;;;20.86;72.94;99710.63;430842;1271;144375;-59
2022/06/29 06:51:26;;;;;;;18.30;15.50;;;;;;;21.64;70.90;99708.69;430782;1271;146959;-61
2022/06/29 07:01:32;;;;;;;16.20;14.60;;;;;;;21.60;70.12;99714.59;430857;1270;142621;-59
2022/06/29 07:11:38;;;;;;;15.20;12.60;;;;;;;21.55;69.88;99702.86;431624;1270;142046;-57
2022/06/29 07:21:45;;;;;;;15.40;13.50;;;;;;;21.48;69.50;99699.66;430609;1271;143022;-59
2022/06/29 07:31:51;;;;;;;14.70;13.10;;;;;;;21.47;69.44;99689.40;431356;1271;142871;-60
2022/06/29 07:41:57;;;;;;;12.20;11.10;;;;;;;21.69;69.27;99692.48;430323;1271;142485;-58
2022/06/29 07:52:03;;;;;;;12.20;10.60;;;;;;;21.97;68.54;99708.48;431203;1271;142472;-59
2022/06/29 08:02:10;;;;;;;11.30;9.50;;;;;;;22.22;67.61;99711.60;430566;1270;142441;-59
2022/06/29 08:12:17;;;;;;;13.30;11.60;;;;;;;22.48;67.02;99701.05;431281;1271;142810;-59
2022/06/29 08:22:23;;;;;;;12.60;11.30;;;;;;;22.84;66.08;99695.78;430951;1271;142731;-60
2022/06/29 08:32:29;;;;;;;16.30;10.50;;;;;;;23.10;65.66;99697.50;429976;1271;141929;-59
2022/06/29 08:42:36;;;;;;;11.80;10.30;;;;;;;23.69;64.37;99701.16;430731;1270;145678;-60
2022/06/29 08:52:44;;;;;;;10.90;9.90;;;;;;;24.99;62.19;99694.48;431733;1270;142235;-59
2022/06/29 09:02:50;;;;;;;11.20;9.80;;;;;;;25.90;60.08;99699.15;430384;1271;144356;-61
2022/06/29 09:12:58;;;;;;;10.70;9.30;;;;;;;26.69;57.79;99694.31;430881;1270;142293;-59
2022/06/29 09:23:03;;;;;;;9.80;8.90;;;;;;;27.47;55.79;99688.96;431583;1270;141795;-61
2022/06/29 09:33:10;;;;;;;10.70;9.20;;;;;;;27.97;54.19;99681.17;431888;1270;142776;-58
2022/06/29 09:43:15;;;;;;;8.60;7.90;;;;;;;28.74;51.95;99672.54;430944;1270;141017;-59
2022/06/29 09:53:29;;;;;;;10.20;8.90;;;;;;;28.44;51.40;99668.85;430210;1270;165074;-58
2022/06/29 10:03:37;;;;;;;11.30;10.30;;;;;;;28.02;50.81;99663.67;430895;1270;345471;-60
2022/06/29 10:13:49;;;;;;;9.20;8.40;;;;;;;27.59;50.86;99653.95;430465;1271;141119;-59
2022/06/29 10:23:57;;;;;;;9.80;9.00;;;;;;;27.68;50.31;99640.98;431007;1270;141706;-61
2022/06/29 10:34:41;;;;;;;12.00;10.70;;;;;;;27.38;50.04;99642.17;432273;1270;140735;-59
2022/06/29 10:45:01;;;;;;;10.40;9.50;;;;;;;26.83;50.26;99631.05;430742;1270;142706;-59
2022/06/29 10:55:08;;;;;;;9.20;8.40;;;;;;;26.54;50.52;99623.60;431141;1270;150886;-61
2022/06/29 11:05:15;;;;;;;9.20;7.80;;;;;;;26.51;50.15;99609.14;431091;1270;140389;-61
2022/06/29 11:15:41;;;;;;;8.10;7.40;;;;;;;26.14;50.89;99599.05;431948;1270;141454;-59
2022/06/29 11:25:53;;;;;;;7.80;7.00;;;;;;;26.17;51.22;99598.41;431557;1270;140240;-59
2022/06/29 11:36:03;;;;;;;9.10;8.00;;;;;;;26.18;51.34;99588.89;431441;1270;142424;-58
2022/06/29 11:46:20;;;;;;;8.30;7.60;;;;;;;26.31;51.13;99579.86;431619;1270;142154;-58
2022/06/29 11:56:28;;;;;;;6.10;5.60;;;;;;;26.37;50.95;99578.42;431038;1270;141427;-58
2022/06/29 12:06:39;;;;;;;5.90;5.50;;;;;;;26.51;50.83;99567.22;431082;1269;140474;-59
2022/06/29 12:16:44;;;;;;;5.70;4.60;;;;;;;26.65;50.25;99561.53;430878;1270;140456;-61
2022/06/29 12:26:50;;;;;;;6.10;5.60;;;;;;;26.54;49.40;99548.67;429886;1270;141932;-59
2022/06/29 12:36:56;;;;;;;5.80;5.40;;;;;;;26.69;49.44;99533.91;430669;1270;141460;-59
2022/06/29 12:47:02;;;;;;;5.60;5.10;;;;;;;27.01;49.44;99527.06;430461;1270;141298;-62
2022/06/29 12:57:08;;;;;;;6.90;5.00;;;;;;;27.38;49.00;99524.82;431273;1270;193481;-58
2022/06/29 13:07:14;;;;;;;5.00;4.60;;;;;;;27.48;48.69;99519.94;431055;1270;141469;-60
2022/06/29 13:17:21;;;;;;;6.10;4.90;;;;;;;27.53;48.27;99507.78;430995;1270;141432;-59
2022/06/29 13:27:26;;;;;;;4.80;4.50;;;;;;;27.65;47.48;99502.91;431062;1270;143303;-61
2022/06/29 13:37:33;;;;;;;6.00;4.60;;;;;;;27.87;47.00;99506.92;432122;1270;142690;-59
2022/06/29 13:47:38;;;;;;;5.80;5.40;;;;;;;28.35;46.56;99515.62;430630;1270;141193;-61
2022/06/29 13:57:44;;;;;;;5.40;5.00;;;;;;;28.58;46.26;99524.98;431273;1270;140800;-59
2022/06/29 14:07:50;;;;;;;5.30;4.80;;;;;;;28.72;45.88;99536.36;434329;1269;141799;-58
2022/06/29 14:18:16;;;;;;;5.60;5.00;;;;;;;28.76;45.61;99535.03;431161;1269;141371;-59
2022/06/29 14:28:22;;;;;;;7.50;6.00;;;;;;;28.78;45.53;99528.45;430827;1270;141301;-60
2022/06/29 14:38:28;;;;;;;7.20;5.70;;;;;;;28.66;45.46;99518.86;432993;1270;141700;-61
2022/06/29 14:48:34;;;;;;;5.30;4.80;;;;;;;28.77;45.31;99514.62;431414;1269;141425;-60
2022/06/29 14:58:40;;;;;;;6.10;5.60;;;;;;;28.60;45.75;99510.89;431145;1270;142246;-58
2022/06/29 15:08:46;;;;;;;9.20;5.40;;;;;;;28.41;45.85;99505.45;430348;1270;142672;-59
2022/06/29 15:18:52;;;;;;;5.20;4.70;;;;;;;27.87;45.91;99498.38;432086;1270;140865;-62
2022/06/29 15:28:58;;;;;;;6.40;5.60;;;;;;;27.46;46.71;99487.94;431054;1270;144724;-59
2022/06/29 15:39:04;;;;;;;7.60;5.30;;;;;;;27.22;47.23;99475.97;430861;1270;140900;-60
2022/06/29 15:49:10;;;;;;;12.90;6.10;;;;;;;27.05;48.17;99452.45;431333;1270;141607;-61
2022/06/29 15:59:16;;;;;;;7.70;5.90;;;;;;;26.72;48.29;99437.96;433036;1269;142208;-57
2022/06/29 16:09:22;;;;;;;6.70;5.20;;;;;;;26.37;49.06;99433.25;432199;1270;140911;-61
2022/06/29 16:19:28;;;;;;;6.10;5.60;;;;;;;26.22;49.64;99434.18;431112;1271;143712;-59
2022/06/29 16:29:44;;;;;;;5.80;5.20;;;;;;;26.21;49.91;99420.83;441318;1270;141742;-61
2022/06/29 16:39:50;;;;;;;6.70;5.60;;;;;;;26.17;49.90;99409.69;431284;1270;141590;-60
2022/06/29 16:49:56;;;;;;;6.50;5.40;;;;;;;26.05;50.46;99415.46;430612;1271;142020;-58
2022/06/29 17:00:02;;;;;;;6.60;5.80;;;;;;;25.87;50.91;99412.82;435170;1270;141730;-60
2022/06/29 17:10:09;;;;;;;6.50;5.30;;;;;;;25.81;51.32;99402.70;430494;1269;143486;-59
2022/06/29 17:20:15;;;;;;;6.60;5.40;;;;;;;25.74;51.66;99387.67;431446;1270;141613;-60
2022/06/29 17:30:21;;;;;;;9.60;6.40;;;;;;;25.71;51.76;99405.27;430658;1270;141533;-60
2022/06/29 17:40:27;;;;;;;8.80;8.10;;;;;;;25.43;52.17;99395.83;430860;1270;140255;-60
2022/06/29 17:50:33;;;;;;;9.40;8.40;;;;;;;25.13;52.67;99412.30;429824;1270;143577;-60
2022/06/29 18:00:39;;;;;;;9.70;8.90;;;;;;;24.98;53.13;99423.91;447652;1270;141638;-61
2022/06/29 18:10:45;;;;;;;12.50;11.30;;;;;;;24.93;53.41;99418.23;436361;1270;141907;-58
2022/06/29 18:20:51;;;;;;;14.30;12.90;;;;;;;24.68;53.89;99435.23;429357;1270;141148;-61
2022/06/29 18:30:57;;;;;;;14.40;13.10;;;;;;;24.41;54.19;99440.33;434136;1270;141393;-59
2022/06/29 18:41:03;;;;;;;14.50;13.10;;;;;;;24.14;54.83;99435.27;446906;1270;142507;-60
2022/06/29 18:51:09;;;;;;;14.60;13.40;;;;;;;23.92;55.12;99439.19;447739;1268;141666;-60
2022/06/29 19:01:15;;;;;;;15.50;14.10;;;;;;;23.69;55.84;99434.67;442502;1270;142647;-60
2022/06/29 19:21:45;;;;;;;15.60;14.00;;;;;;;23.20;57.53;99423.77;430622;1270;141806;-59
2022/06/29 19:31:51;;;;;;;16.90;15.30;;;;;;;22.97;58.69;99433.78;430704;1269;142638;-60
2022/06/29 19:41:57;;;;;;;18.30;16.80;;;;;;;22.74;59.24;99419.32;435007;1270;143236;-59
2022/06/29 19:52:04;;;;;;;17.90;16.30;;;;;;;22.56;60.33;99410.43;430659;1268;145056;-60
2022/06/29 20:02:10;;;;;;;17.50;15.90;;;;;;;22.37;60.79;99397.75;435940;1267;182177;-59
2022/06/29 20:12:17;;;;;;;19.60;17.90;;;;;;;22.19;61.60;99405.14;432636;1270;142028;-58
2022/06/29 20:22:23;;;;;;;19.90;18.30;;;;;;;22.03;61.78;99413.34;431586;1270;142859;-59
2022/06/29 20:32:31;;;;;;;19.10;17.60;;;;;;;21.92;62.46;99426.61;429790;1270;143715;-59
2022/06/29 20:42:37;;;;;;;20.30;18.50;;;;;;;21.84;62.91;99430.04;430498;1270;142355;-60
2022/06/29 20:52:43;;;;;;;20.80;19.00;;;;;;;21.74;63.34;99418.70;430957;1270;142982;-61
2022/06/29 21:02:50;;;;;;;18.90;17.10;;;;;;;21.64;63.50;99410.84;430935;1270;142886;-56
2022/06/29 21:12:55;;;;;;;20.20;17.30;;;;;;;21.58;63.77;99420.65;433250;1270;142861;-60
2022/06/29 21:23:01;;;;;;;17.30;15.80;;;;;;;21.51;63.85;99418.02;430852;1269;145880;-59
2022/06/29 21:33:08;;;;;;;16.70;15.10;;;;;;;21.47;63.96;99410.30;431163;1270;141751;-59
2022/06/29 21:43:13;;;;;;;15.80;14.30;;;;;;;21.46;64.43;99430.17;431660;1270;142180;-62
2022/06/29 21:53:19;;;;;;;14.60;13.20;;;;;;;21.41;64.20;99429.13;430821;1270;141842;-61
2022/06/29 22:03:25;;;;;;;11.40;10.50;;;;;;;21.34;64.21;99432.35;431840;1270;331415;-61
2022/06/29 22:13:31;;;;;;;11.30;10.40;;;;;;;21.24;63.99;99439.85;432024;1270;143209;-58
2022/06/29 22:23:37;;;;;;;12.00;11.00;;;;;;;21.19;64.10;99435.23;431098;1270;144124;-60
2022/06/29 22:33:43;;;;;;;10.70;9.70;;;;;;;21.18;64.25;99413.17;431900;1269;141286;-59
2022/06/29 22:43:50;;;;;;;10.30;9.40;;;;;;;21.12;64.27;99408.92;431447;1270;144462;-58
2022/06/29 22:53:56;;;;;;;10.20;9.20;;;;;;;21.08;64.35;99406.64;430570;1270;142525;-58
2022/06/29 23:04:02;;;;;;;10.70;8.70;;;;;;;21.08;64.39;99390.79;432083;1270;141667;-59
2022/06/29 23:14:08;;;;;;;10.30;9.10;;;;;;;21.07;64.38;99378.18;431315;1270;141814;-56
2022/06/29 23:24:13;;;;;;;8.50;7.70;;;;;;;21.02;64.47;99353.94;432152;1270;141835;-59
2022/06/29 23:34:19;;;;;;;9.40;8.50;;;;;;;20.98;64.63;99339.71;431812;1270;141964;-61
2022/06/29 23:44:26;;;;;;;8.20;7.50;;;;;;;20.94;64.95;99337.85;431364;1270;141849;-60
2022/06/29 23:54:35;;;;;;;9.30;8.40;;;;;;;21.10;65.08;99328.98;431481;1270;142993;-58
